Time;durP1;ratioP1;P1;durP2;ratioP2;P2;SDS_P1;SDS_P2;PMS_P1;PMS_P2;Temp;Humidity;BMP_temperature;BMP_pressure;BME280_temperature;BME280_humidity;BME280_pressure;Samples;Min_cycle;Max_cycle;Signal;HPM_P1;HPM_P2
2023/04/07 00:00:51;;;;;;;4.50;2.40;;;;;;;3.88;66.85;102282.09;5041141;28;20033;-65
2023/04/07 00:03:16;;;;;;;4.88;2.50;;;;;;;3.93;67.35;102300.38;5059587;28;20029;-65
2023/04/07 00:05:42;;;;;;;4.22;2.75;;;;;;;3.89;66.90;102293.59;5047462;28;20100;-66
2023/04/07 00:08:07;;;;;;;5.63;2.28;;;;;;;3.86;67.56;102301.81;5048680;28;20140;-65
2023/04/07 00:10:33;;;;;;;4.13;2.65;;;;;;;3.82;67.62;102303.03;5058892;28;20029;-65
2023/04/07 00:12:58;;;;;;;4.90;2.42;;;;;;;3.52;67.28;102275.97;5038091;28;20025;-65
2023/04/07 00:15:24;;;;;;;5.32;2.45;;;;;;;3.66;68.00;102312.16;5058319;28;20036;-65
2023/04/07 00:17:49;;;;;;;4.68;2.65;;;;;;;3.62;67.68;102312.53;5055885;28;20029;-65
2023/04/07 00:20:15;;;;;;;5.35;2.58;;;;;;;3.57;67.89;102309.34;5059421;28;20029;-65
2023/04/07 00:22:40;;;;;;;5.75;2.40;;;;;;;3.55;68.07;102313.97;5024802;28;20025;-65
2023/04/07 00:25:06;;;;;;;4.95;2.83;;;;;;;3.50;67.84;102308.97;5041899;28;20557;-65
2023/04/07 00:27:31;;;;;;;5.20;2.95;;;;;;;3.52;67.68;102318.53;5041356;28;20051;-65
2023/04/07 00:29:57;;;;;;;5.95;2.47;;;;;;;3.52;68.27;102320.38;5040926;28;20036;-65
2023/04/07 00:32:22;;;;;;;4.38;2.60;;;;;;;3.50;67.78;102311.63;5056718;28;20037;-65
2023/04/07 00:34:48;;;;;;;3.92;2.42;;;;;;;3.50;68.35;102322.28;5034914;28;20428;-65
2023/04/07 00:37:13;;;;;;;3.40;2.15;;;;;;;3.34;68.46;102293.31;5058010;28;20064;-65
2023/04/07 00:39:38;;;;;;;6.55;2.83;;;;;;;3.50;69.13;102320.47;5040784;28;20043;-65
2023/04/07 00:42:06;;;;;;;7.50;2.47;;;;;;;3.44;68.42;102325.41;5024478;28;20028;-65
2023/04/07 00:44:32;;;;;;;6.93;2.50;;;;;;;3.34;69.13;102322.56;5059317;28;20086;-65
2023/04/07 00:46:59;;;;;;;5.05;2.50;;;;;;;3.30;69.32;102321.97;5040246;28;20447;-65
2023/04/07 00:49:27;;;;;;;5.18;2.75;;;;;;;3.37;69.94;102325.00;5056864;28;20385;-65
2023/04/07 00:51:53;;;;;;;5.05;2.50;;;;;;;3.41;69.81;102330.94;5036709;28;20032;-66
2023/04/07 00:54:20;;;;;;;4.07;2.35;;;;;;;3.44;69.51;102331.56;5055321;28;20438;-65
2023/04/07 00:56:46;;;;;;;3.50;2.60;;;;;;;3.38;69.56;102325.84;5057880;28;20033;-65
2023/04/07 00:59:11;;;;;;;4.45;2.70;;;;;;;3.29;69.80;102317.63;5051205;28;20060;-65
2023/04/07 01:01:49;;;;;;;7.57;2.33;;;;;;;3.30;69.53;102319.31;5059729;28;20029;-65
2023/04/07 01:04:17;;;;;;;6.43;2.60;;;;;;;3.37;69.70;102340.97;5057465;28;20036;-65
2023/04/07 01:06:49;;;;;;;4.47;2.65;;;;;;;3.37;69.92;102337.47;5056471;28;20033;-65
2023/04/07 01:09:21;;;;;;;5.25;2.50;;;;;;;3.32;70.37;102340.50;5055652;28;20032;-65
2023/04/07 01:12:11;;;;;;;5.03;2.65;;;;;;;3.35;70.28;102344.75;5039250;28;20032;-65
2023/04/07 01:14:44;;;;;;;5.50;2.50;;;;;;;3.22;70.40;102342.97;5057242;28;20043;-65
2023/04/07 01:17:14;;;;;;;4.78;2.50;;;;;;;3.20;70.54;102341.38;5039031;28;20393;-65
2023/04/07 01:19:46;;;;;;;6.65;2.88;;;;;;;3.21;71.05;102343.06;5057279;28;20024;-65
2023/04/07 01:22:14;;;;;;;7.05;2.53;;;;;;;3.24;71.02;102341.03;5057404;28;20040;-65
2023/04/07 01:25:17;;;;;;;5.03;2.80;;;;;;;3.27;70.80;102346.13;5039471;28;20035;-65
2023/04/07 01:27:48;;;;;;;5.13;2.60;;;;;;;3.34;70.75;102343.88;5057298;28;20045;-65
2023/04/07 01:30:15;;;;;;;4.43;2.85;;;;;;;3.36;70.97;102343.75;5043946;28;20017;-65
2023/04/07 01:32:44;;;;;;;4.65;2.50;;;;;;;3.14;70.74;102318.75;5046717;28;20021;-65
2023/04/07 01:35:12;;;;;;;6.20;2.65;;;;;;;3.27;70.50;102346.13;5054527;28;20491;-65
2023/04/07 01:37:37;;;;;;;5.00;2.83;;;;;;;3.23;71.13;102344.66;5056137;28;20033;-65
2023/04/07 01:40:06;;;;;;;5.20;2.85;;;;;;;3.23;70.91;102341.16;5057763;28;20024;-65
2023/04/07 01:42:33;;;;;;;4.32;2.53;;;;;;;3.21;71.05;102343.94;5061881;28;20029;-65
2023/04/07 01:45:00;;;;;;;6.80;2.47;;;;;;;3.20;70.63;102344.88;5060119;28;20044;-65
2023/04/07 01:47:29;;;;;;;5.72;2.78;;;;;;;3.15;70.97;102347.06;5060748;28;20142;-65
2023/04/07 01:49:57;;;;;;;4.88;2.53;;;;;;;2.93;71.51;102313.19;5043227;28;20032;-65
2023/04/07 01:52:25;;;;;;;4.88;3.10;;;;;;;3.11;71.32;102334.91;5048532;28;20033;-65
2023/04/07 01:54:50;;;;;;;4.57;2.50;;;;;;;3.08;71.80;102340.50;5043423;28;20525;-65
2023/04/07 01:57:16;;;;;;;6.28;2.95;;;;;;;3.03;71.72;102343.47;5040677;28;20029;-65
2023/04/07 01:59:41;;;;;;;4.30;2.65;;;;;;;3.04;71.81;102345.16;5065599;28;20029;-65
2023/04/07 02:02:07;;;;;;;6.25;2.80;;;;;;;3.02;71.77;102355.09;5026810;28;20028;-67
2023/04/07 02:04:58;;;;;;;4.13;2.40;;;;;;;3.03;71.96;102350.59;5071788;28;20399;-70
2023/04/07 02:07:33;;;;;;;4.55;2.80;;;;;;;2.90;72.42;102352.47;5068074;28;20045;-65
2023/04/07 02:10:03;;;;;;;6.57;2.83;;;;;;;2.76;72.35;102354.31;5060401;28;20071;-65
2023/04/07 02:12:30;;;;;;;4.28;2.55;;;;;;;2.76;72.24;102351.66;5047473;28;20017;-65
2023/04/07 02:14:57;;;;;;;5.22;2.80;;;;;;;2.54;72.93;102346.16;5062954;28;20032;-65
2023/04/07 02:17:24;;;;;;;4.85;2.70;;;;;;;2.52;73.63;102358.72;5026191;28;20029;-65
2023/04/07 02:19:52;;;;;;;5.28;2.40;;;;;;;2.51;73.45;102367.63;5041982;28;20037;-65
2023/04/07 02:22:17;;;;;;;5.07;2.60;;;;;;;2.53;72.56;102344.47;5025444;28;20025;-65
2023/04/07 02:24:43;;;;;;;6.50;2.60;;;;;;;2.57;72.50;102360.06;5060197;28;20441;-65
2023/04/07 02:27:08;;;;;;;4.43;2.50;;;;;;;2.55;72.30;102354.03;5025303;28;20056;-65
2023/04/07 02:29:34;;;;;;;4.63;2.80;;;;;;;2.57;72.71;102369.84;5041415;28;20381;-65
2023/04/07 02:31:59;;;;;;;4.57;2.70;;;;;;;2.62;72.32;102366.91;5059211;28;20476;-65
2023/04/07 02:34:25;;;;;;;6.43;2.60;;;;;;;2.57;72.88;102362.72;5059502;28;20028;-65
2023/04/07 02:36:50;;;;;;;3.90;2.47;;;;;;;2.61;72.44;102363.34;5041302;28;20111;-66
2023/04/07 02:39:16;;;;;;;4.72;2.50;;;;;;;2.56;72.35;102349.56;5059581;28;20021;-68
2023/04/07 02:41:41;;;;;;;4.53;2.17;;;;;;;2.69;71.86;102370.81;5059524;28;20033;-65
2023/04/07 02:44:07;;;;;;;5.00;2.50;;;;;;;2.72;72.38;102368.78;5040896;28;20021;-65
2023/04/07 02:46:32;;;;;;;7.30;2.60;;;;;;;2.64;72.14;102365.81;5059337;28;20029;-65
2023/04/07 02:48:58;;;;;;;4.75;2.53;;;;;;;2.71;72.33;102371.53;5041664;28;20025;-66
2023/04/07 02:51:23;;;;;;;5.20;2.25;;;;;;;2.68;71.92;102374.41;5059086;28;20044;-65
2023/04/07 02:53:48;;;;;;;4.20;2.30;;;;;;;2.65;71.64;102375.50;5041700;28;20752;-65
2023/04/07 02:56:15;;;;;;;4.28;2.35;;;;;;;2.17;74.03;102375.31;5059423;28;20044;-65
2023/04/07 02:58:40;;;;;;;4.13;2.55;;;;;;;1.85;75.28;102365.09;5041121;28;20182;-65
2023/04/07 03:01:05;;;;;;;4.28;2.35;;;;;;;2.13;73.77;102381.78;5041860;28;20492;-65
2023/04/07 03:03:31;;;;;;;4.35;2.60;;;;;;;2.22;73.16;102381.16;5041011;28;20037;-65
2023/04/07 03:05:56;;;;;;;4.78;2.70;;;;;;;2.11;74.65;102384.53;5059334;28;20035;-65
2023/04/07 03:08:22;;;;;;;6.72;2.88;;;;;;;2.22;73.66;102361.69;5059226;28;20024;-65
2023/04/07 03:10:47;;;;;;;4.85;2.30;;;;;;;2.44;72.92;102391.13;5041547;28;20060;-65
2023/04/07 03:13:15;;;;;;;6.85;2.45;;;;;;;2.47;72.76;102390.91;5024681;28;20029;-65
2023/04/07 03:15:42;;;;;;;4.88;2.50;;;;;;;2.45;72.60;102389.31;5059414;28;20096;-65
2023/04/07 03:18:08;;;;;;;3.72;2.30;;;;;;;2.48;72.32;102399.72;5040985;28;20056;-65
2023/04/07 03:20:33;;;;;;;5.85;2.95;;;;;;;2.40;72.40;102397.63;5024586;28;20039;-65
2023/04/07 03:22:58;;;;;;;4.40;2.53;;;;;;;2.40;72.26;102394.09;5060543;28;20502;-65
2023/04/07 03:25:25;;;;;;;5.28;2.65;;;;;;;2.36;72.58;102396.13;5058711;28;20036;-65
2023/04/07 03:27:50;;;;;;;6.68;2.50;;;;;;;2.30;72.67;102402.72;5023862;28;20040;-65
2023/04/07 03:30:16;;;;;;;4.82;2.38;;;;;;;2.26;72.70;102387.94;5022043;28;20029;-65
2023/04/07 03:32:41;;;;;;;5.35;2.70;;;;;;;2.32;71.84;102411.44;5058632;28;20043;-65
2023/04/07 03:35:07;;;;;;;9.68;2.90;;;;;;;2.25;72.61;102410.16;5059250;28;20540;-65
2023/04/07 03:37:32;;;;;;;4.28;2.38;;;;;;;2.21;72.85;102408.66;5059217;28;20025;-65
2023/04/07 03:39:58;;;;;;;6.40;2.50;;;;;;;2.19;72.55;102409.75;5040678;28;20436;-65
2023/04/07 03:42:23;;;;;;;5.40;2.15;;;;;;;2.04;73.27;102411.63;5040649;28;20028;-65
2023/04/07 03:44:49;;;;;;;4.82;2.42;;;;;;;2.06;72.85;102415.88;5039959;28;20110;-65
2023/04/07 03:47:14;;;;;;;4.03;2.20;;;;;;;1.78;72.88;102361.13;5040789;28;20044;-65
2023/04/07 03:49:39;;;;;;;5.20;2.50;;;;;;;2.08;72.63;102394.50;5023134;28;20056;-65
2023/04/07 03:52:05;;;;;;;5.97;2.58;;;;;;;2.20;72.98;102408.78;5023466;28;20250;-65
2023/04/07 03:54:30;;;;;;;5.10;2.60;;;;;;;1.99;75.36;102408.44;5023650;28;20029;-65
2023/04/07 03:56:56;;;;;;;4.63;2.50;;;;;;;2.01;75.49;102402.03;5057664;28;20467;-65
2023/04/07 03:59:22;;;;;;;4.72;2.22;;;;;;;2.19;73.87;102418.53;5038990;28;20059;-65
2023/04/07 04:01:47;;;;;;;5.32;2.53;;;;;;;2.14;73.42;102403.88;5040054;28;20030;-65
2023/04/07 04:04:13;;;;;;;6.65;2.60;;;;;;;2.05;73.71;102400.03;5022744;28;20431;-65
2023/04/07 04:06:38;;;;;;;5.63;3.00;;;;;;;2.16;73.50;102418.75;5057989;28;20100;-65
2023/04/07 04:09:03;;;;;;;4.93;2.58;;;;;;;2.23;73.00;102421.84;5040145;28;20040;-65
2023/04/07 04:11:30;;;;;;;5.32;2.60;;;;;;;2.18;73.24;102414.16;5039725;28;20029;-65
2023/04/07 04:13:56;;;;;;;4.90;2.40;;;;;;;2.14;73.34;102419.81;5039898;28;20043;-65
2023/04/07 04:16:21;;;;;;;5.80;2.60;;;;;;;2.15;73.32;102424.16;5023840;28;20025;-65
2023/04/07 04:18:46;;;;;;;4.07;2.35;;;;;;;2.12;73.66;102433.19;5040314;28;20028;-65
2023/04/07 04:21:12;;;;;;;5.50;2.88;;;;;;;2.14;72.86;102433.09;5039732;28;20056;-65
2023/04/07 04:23:37;;;;;;;4.63;2.60;;;;;;;2.16;72.98;102434.69;5039978;28;20020;-64
2023/04/07 04:26:03;;;;;;;5.57;2.78;;;;;;;2.16;73.19;102431.19;5039395;28;20049;-65
2023/04/07 04:28:28;;;;;;;3.03;2.45;;;;;;;2.13;73.39;102432.25;5040007;28;20032;-65
2023/04/07 04:30:54;;;;;;;5.20;2.45;;;;;;;2.14;73.24;102435.75;5057577;28;20028;-65
2023/04/07 04:33:19;;;;;;;5.18;2.38;;;;;;;2.09;73.31;102438.72;5040288;28;20084;-65
2023/04/07 04:35:45;;;;;;;6.15;2.40;;;;;;;2.04;73.22;102439.00;5040234;28;20127;-65
2023/04/07 04:38:11;;;;;;;7.50;2.72;;;;;;;2.37;73.04;102439.47;5057736;28;20494;-65
2023/04/07 04:40:37;;;;;;;5.40;2.50;;;;;;;2.80;71.67;102442.66;5061419;28;20056;-65
2023/04/07 04:43:05;;;;;;;5.95;2.85;;;;;;;3.22;71.11;102445.88;5029336;28;20060;-65
2023/04/07 04:45:31;;;;;;;4.18;2.45;;;;;;;3.63;70.23;102448.16;5025800;28;20120;-65
2023/04/07 04:47:57;;;;;;;7.97;2.63;;;;;;;4.10;68.60;102450.88;5041888;28;20052;-65
2023/04/07 04:50:22;;;;;;;4.28;2.85;;;;;;;4.48;68.25;102450.63;5059907;28;20052;-65
2023/04/07 04:52:48;;;;;;;2.97;2.50;;;;;;;4.88;67.08;102455.50;5024479;28;20033;-65
2023/04/07 04:55:13;;;;;;;4.75;2.60;;;;;;;5.29;65.86;102451.34;5059975;28;20045;-65
2023/04/07 04:57:39;;;;;;;4.40;2.60;;;;;;;5.65;64.46;102456.34;5037740;28;20368;-65
2023/04/07 05:00:06;;;;;;;4.80;2.78;;;;;;;6.06;63.46;102462.78;5021980;28;20036;-65
2023/04/07 05:02:32;;;;;;;4.50;2.42;;;;;;;6.34;62.33;102457.75;5022628;28;20036;-65
2023/04/07 05:04:57;;;;;;;4.28;2.42;;;;;;;6.82;61.00;102467.88;5057079;28;20029;-65
2023/04/07 05:07:23;;;;;;;5.88;2.28;;;;;;;6.99;59.47;102451.22;5039117;28;20024;-65
2023/04/07 05:09:48;;;;;;;3.45;2.22;;;;;;;7.32;58.74;102475.09;5057650;28;20033;-65
2023/04/07 05:12:15;;;;;;;4.70;2.40;;;;;;;7.57;57.61;102471.94;5043401;28;20028;-65
2023/04/07 05:14:40;;;;;;;7.20;2.25;;;;;;;7.71;57.50;102454.59;5028301;28;20025;-65
2023/04/07 05:17:06;;;;;;;6.13;2.70;;;;;;;8.30;56.64;102471.50;5043469;28;20082;-65
2023/04/07 05:19:31;;;;;;;6.22;2.63;;;;;;;8.22;55.44;102466.88;5042983;28;20053;-65
2023/04/07 05:21:57;;;;;;;5.45;2.67;;;;;;;8.27;54.41;102475.31;5042637;28;20029;-65
2023/04/07 05:24:27;;;;;;;5.13;2.40;;;;;;;8.37;54.25;102468.09;5061432;28;20036;-65
2023/04/07 05:26:53;;;;;;;4.68;2.60;;;;;;;8.51;53.92;102479.41;5061491;28;20053;-65
2023/04/07 05:29:18;;;;;;;4.68;2.95;;;;;;;8.52;52.80;102475.75;5045524;28;20110;-65
2023/04/07 05:31:44;;;;;;;5.10;2.50;;;;;;;8.85;52.86;102480.59;5062253;28;20048;-65
2023/04/07 05:34:09;;;;;;;3.13;2.38;;;;;;;9.04;51.86;102460.88;5062380;28;20025;-65
2023/04/07 05:36:35;;;;;;;6.40;2.97;;;;;;;8.89;52.13;102457.81;5047319;28;20036;-65
2023/04/07 05:39:00;;;;;;;4.65;3.03;;;;;;;7.51;55.09;102478.66;5046054;28;20082;-65
2023/04/07 05:41:26;;;;;;;3.15;2.25;;;;;;;6.44;58.20;102480.06;5041725;28;20037;-65
2023/04/07 05:43:51;;;;;;;5.28;2.53;;;;;;;5.47;61.06;102460.53;5062991;28;20036;-65
2023/04/07 05:46:17;;;;;;;4.85;2.38;;;;;;;5.12;63.74;102480.22;5061429;28;20036;-65
2023/04/07 05:48:42;;;;;;;5.47;2.53;;;;;;;4.84;65.30;102499.41;5063066;28;20037;-65
2023/04/07 05:51:07;;;;;;;4.30;2.30;;;;;;;4.66;67.15;102497.16;5045604;28;20396;-65
2023/04/07 05:53:33;;;;;;;5.93;2.40;;;;;;;4.67;67.14;102498.03;5058211;28;20452;-65
2023/04/07 05:55:58;;;;;;;3.95;2.20;;;;;;;4.53;67.86;102503.56;5061433;28;20033;-65
2023/04/07 05:58:24;;;;;;;6.07;2.10;;;;;;;4.63;68.64;102505.41;5063245;28;20456;-65
2023/04/07 06:00:49;;;;;;;5.45;2.55;;;;;;;4.70;68.67;102484.44;5063774;28;20064;-65
2023/04/07 06:03:15;;;;;;;5.68;2.50;;;;;;;4.80;68.33;102504.13;5063093;28;20025;-65
2023/04/07 06:05:42;;;;;;;3.35;1.95;;;;;;;4.81;68.39;102511.16;5028261;28;20051;-65
2023/04/07 06:08:09;;;;;;;4.32;2.20;;;;;;;4.70;69.44;102508.44;5063229;28;20029;-65
2023/04/07 06:10:35;;;;;;;5.32;2.50;;;;;;;4.56;69.20;102488.19;5060573;28;20380;-66
2023/04/07 06:13:00;;;;;;;3.88;2.47;;;;;;;4.98;68.68;102509.81;5042708;28;20020;-65
2023/04/07 06:15:26;;;;;;;5.00;2.40;;;;;;;5.09;67.94;102508.97;5047004;28;20105;-65
2023/04/07 06:17:51;;;;;;;5.38;2.42;;;;;;;5.14;68.16;102517.47;5057852;28;20032;-65
2023/04/07 06:20:17;;;;;;;3.92;2.10;;;;;;;5.30;67.87;102517.94;5037551;28;20033;-67
2023/04/07 06:22:42;;;;;;;5.75;2.28;;;;;;;5.38;67.24;102499.50;5038811;28;20091;-65
2023/04/07 06:25:08;;;;;;;4.07;2.15;;;;;;;5.54;67.55;102499.09;5037928;28;20299;-66
2023/04/07 06:27:34;;;;;;;4.53;2.38;;;;;;;5.78;67.24;102516.78;5044269;28;20426;-67
2023/04/07 06:30:00;;;;;;;5.07;1.95;;;;;;;5.69;67.39;102514.84;5059928;28;20055;-68
2023/04/07 06:32:25;;;;;;;3.22;2.20;;;;;;;5.65;66.96;102485.72;5060577;28;20025;-66
2023/04/07 06:34:51;;;;;;;4.63;1.95;;;;;;;5.82;67.25;102519.06;5061101;28;20044;-68
2023/04/07 06:37:17;;;;;;;3.83;2.42;;;;;;;5.50;68.58;102523.53;5061341;28;20047;-66
2023/04/07 06:39:42;;;;;;;5.57;2.20;;;;;;;5.44;68.84;102522.19;5060613;28;20033;-66
2023/04/07 06:42:08;;;;;;;5.38;2.20;;;;;;;5.42;69.60;102527.63;5059400;28;20016;-67
2023/04/07 06:44:33;;;;;;;4.10;1.98;;;;;;;5.64;68.93;102520.56;5037871;28;20155;-66
2023/04/07 06:46:58;;;;;;;3.58;2.20;;;;;;;5.90;68.20;102521.13;5059333;28;20036;-65
2023/04/07 06:49:24;;;;;;;4.72;2.40;;;;;;;6.07;67.89;102523.25;5044499;28;20067;-65
2023/04/07 06:51:49;;;;;;;8.45;3.15;;;;;;;6.13;67.17;102529.09;5061278;28;20057;-66
2023/04/07 06:54:15;;;;;;;4.63;2.22;;;;;;;6.14;67.14;102523.59;5040268;28;20184;-66
2023/04/07 06:56:41;;;;;;;6.30;2.20;;;;;;;6.52;65.94;102508.81;5026000;28;20033;-65
2023/04/07 06:59:07;;;;;;;6.70;2.30;;;;;;;6.57;65.97;102518.16;5042266;28;20110;-66
2023/04/07 07:01:32;;;;;;;5.50;2.35;;;;;;;6.47;66.54;102527.09;5024796;28;20452;-65
2023/04/07 07:03:59;;;;;;;4.30;2.40;;;;;;;6.24;67.04;102527.19;5024925;28;20029;-65
2023/04/07 07:06:26;;;;;;;3.90;2.20;;;;;;;6.28;67.17;102503.72;5052779;28;20044;-66
2023/04/07 07:08:51;;;;;;;4.53;2.22;;;;;;;6.56;66.73;102531.66;5047632;28;20640;-67
2023/04/07 07:11:17;;;;;;;3.35;2.05;;;;;;;6.91;66.44;102533.97;5042659;28;20064;-67
2023/04/07 07:13:43;;;;;;;4.13;2.20;;;;;;;6.76;66.60;102529.97;5045740;28;20033;-68
2023/04/07 07:16:09;;;;;;;6.30;2.03;;;;;;;6.97;66.26;102528.09;5044219;28;20483;-68
2023/04/07 07:18:35;;;;;;;3.30;2.00;;;;;;;6.87;65.79;102524.53;5075637;28;20146;-69
2023/04/07 07:21:01;;;;;;;4.30;2.40;;;;;;;6.81;66.65;102539.28;5042333;28;20101;-67
2023/04/07 07:23:26;;;;;;;6.75;2.53;;;;;;;7.17;66.32;102539.75;5023926;28;20069;-68
2023/04/07 07:25:52;;;;;;;4.22;2.15;;;;;;;7.30;65.23;102524.28;5038418;28;20061;-67
2023/04/07 07:28:18;;;;;;;11.82;6.30;;;;;;;7.33;65.19;102531.22;5019849;28;20045;-68
2023/04/07 07:30:43;;;;;;;6.57;2.97;;;;;;;7.26;65.22;102551.50;5038208;28;20049;-66
2023/04/07 07:33:09;;;;;;;8.60;3.00;;;;;;;7.18;65.06;102548.63;5035288;28;20049;-68
2023/04/07 07:35:36;;;;;;;12.52;10.10;;;;;;;6.93;66.14;102550.75;5017640;28;20179;-68
2023/04/07 07:38:02;;;;;;;7.25;2.90;;;;;;;7.12;65.32;102541.13;5002168;28;20113;-66
2023/04/07 07:40:27;;;;;;;8.88;6.00;;;;;;;7.37;65.58;102547.84;5003335;28;20037;-67
2023/04/07 07:42:52;;;;;;;5.10;2.40;;;;;;;7.60;64.97;102551.19;5020768;28;20136;-67
2023/04/07 07:45:18;;;;;;;4.45;2.03;;;;;;;7.81;64.24;102554.59;5003905;28;20445;-66
2023/04/07 07:47:44;;;;;;;3.83;1.90;;;;;;;7.52;64.99;102530.44;5033610;28;20025;-67
2023/04/07 07:50:09;;;;;;;3.83;2.05;;;;;;;7.68;64.81;102554.88;5036419;28;20068;-66
2023/04/07 07:52:35;;;;;;;6.07;1.77;;;;;;;7.77;64.87;102547.81;5037838;28;20093;-66
2023/04/07 07:55:00;;;;;;;4.75;2.13;;;;;;;8.08;65.00;102555.75;5020355;28;20021;-66
2023/04/07 07:57:26;;;;;;;3.97;2.08;;;;;;;7.85;66.21;102557.88;5019328;28;20033;-69
2023/04/07 07:59:52;;;;;;;2.90;1.90;;;;;;;7.92;66.44;102562.53;5019383;28;20555;-66
2023/04/07 08:02:17;;;;;;;4.88;2.42;;;;;;;7.83;66.31;102558.00;5004229;28;20025;-66
2023/04/07 08:04:43;;;;;;;3.08;1.83;;;;;;;7.87;65.78;102572.81;5020231;28;20029;-65
2023/04/07 08:07:10;;;;;;;5.57;1.80;;;;;;;7.83;66.13;102574.06;5018363;28;20021;-66
2023/04/07 08:09:36;;;;;;;4.97;2.15;;;;;;;7.86;65.66;102572.97;5018266;28;20081;-66
2023/04/07 08:12:02;;;;;;;3.58;1.60;;;;;;;8.06;65.87;102565.81;5030694;28;20033;-66
2023/04/07 08:14:28;;;;;;;4.10;1.60;;;;;;;7.87;65.75;102556.72;5040750;28;20033;-65
2023/04/07 08:16:54;;;;;;;5.28;1.67;;;;;;;8.01;64.97;102574.25;5077143;28;20043;-66
2023/04/07 08:19:20;;;;;;;4.30;1.52;;;;;;;7.96;65.57;102561.25;5068457;28;20059;-65
2023/04/07 08:21:45;;;;;;;5.43;2.33;;;;;;;8.07;65.08;102578.22;5056222;28;20484;-66
2023/04/07 08:24:11;;;;;;;5.82;2.10;;;;;;;7.95;65.20;102581.03;5040789;28;20040;-65
2023/04/07 08:26:37;;;;;;;3.67;1.83;;;;;;;8.09;65.02;102581.59;5055665;28;20045;-65
2023/04/07 08:29:02;;;;;;;2.70;1.80;;;;;;;7.86;64.28;102589.88;5037338;28;20454;-66
2023/04/07 08:31:28;;;;;;;2.60;1.50;;;;;;;7.87;65.10;102591.56;5035712;28;20416;-65
2023/04/07 08:33:56;;;;;;;5.38;1.80;;;;;;;8.21;64.30;102584.03;5055110;28;20096;-66
2023/04/07 08:36:26;;;;;;;6.85;2.10;;;;;;;8.15;63.13;102583.75;5036258;28;20055;-66
2023/04/07 08:38:52;;;;;;;4.25;1.60;;;;;;;8.17;62.15;102579.06;5056362;28;20060;-64
2023/04/07 08:41:29;;;;;;;2.63;1.95;;;;;;;8.47;61.90;102578.97;5055935;28;20033;-65
2023/04/07 08:43:56;;;;;;;3.92;1.70;;;;;;;8.52;61.03;102586.59;5036817;28;20212;-66
2023/04/07 08:46:24;;;;;;;4.13;1.55;;;;;;;8.13;60.08;102573.13;5055919;28;20025;-65
2023/04/07 08:48:51;;;;;;;4.85;2.13;;;;;;;8.46;59.70;102581.78;5056970;28;20017;-65
2023/04/07 08:51:27;;;;;;;2.53;1.30;;;;;;;8.56;58.41;102582.63;5022306;28;20032;-66
2023/04/07 08:53:56;;;;;;;4.38;1.50;;;;;;;8.90;58.40;102577.63;5055382;28;20044;-66
2023/04/07 08:56:23;;;;;;;3.15;1.80;;;;;;;8.76;57.75;102583.47;5055622;28;20025;-66
2023/04/07 08:58:49;;;;;;;4.90;1.50;;;;;;;8.99;56.91;102588.50;5034821;28;20086;-70
2023/04/07 09:01:15;;;;;;;3.03;1.40;;;;;;;8.84;55.56;102582.72;5062783;28;20016;-66
2023/04/07 09:03:43;;;;;;;4.10;1.75;;;;;;;8.88;55.32;102585.00;5052583;28;20029;-66
2023/04/07 09:06:12;;;;;;;5.32;2.97;;;;;;;8.75;53.57;102565.69;5040519;28;20064;-66
2023/04/07 09:08:37;;;;;;;5.25;1.90;;;;;;;9.10;53.87;102581.13;5018232;28;20084;-66
2023/04/07 09:11:03;;;;;;;3.72;1.90;;;;;;;9.11;53.63;102582.00;5019156;28;20029;-66
2023/04/07 09:13:30;;;;;;;2.45;1.48;;;;;;;9.23;52.90;102580.78;5017108;28;20034;-66
2023/04/07 09:15:56;;;;;;;3.97;1.60;;;;;;;9.57;53.39;102572.16;5003653;28;20496;-66
2023/04/07 09:18:22;;;;;;;3.53;1.90;;;;;;;9.33;53.00;102573.53;5019466;28;20427;-66
2023/04/07 09:21:04;;;;;;;3.47;2.00;;;;;;;9.51;53.67;102572.78;5037808;28;20072;-66
2023/04/07 09:23:31;;;;;;;3.40;1.80;;;;;;;9.35;52.96;102578.78;5019072;28;20017;-66
2023/04/07 09:25:58;;;;;;;3.65;2.00;;;;;;;9.35;52.98;102558.13;5036171;28;20079;-67
2023/04/07 09:28:24;;;;;;;2.88;1.70;;;;;;;9.60;53.56;102567.38;5043954;28;20032;-66
2023/04/07 09:30:54;;;;;;;2.22;1.40;;;;;;;9.75;53.55;102570.38;5057905;28;20480;-67
2023/04/07 09:33:29;;;;;;;3.30;1.48;;;;;;;9.78;53.02;102567.41;5074358;28;20029;-66
2023/04/07 09:35:55;;;;;;;3.67;1.50;;;;;;;9.83;52.90;102562.44;5057859;28;20553;-67
2023/04/07 09:38:21;;;;;;;3.45;1.40;;;;;;;9.78;53.40;102556.63;5081148;28;20025;-69
2023/04/07 09:40:49;;;;;;;4.75;1.50;;;;;;;10.12;53.73;102564.06;5084648;28;20074;-66
2023/04/07 09:43:17;;;;;;;2.22;1.48;;;;;;;10.00;53.02;102558.06;5056195;28;20099;-67
2023/04/07 09:45:43;;;;;;;3.72;1.80;;;;;;;9.79;53.73;102571.75;5056400;28;20032;-67
2023/04/07 09:48:18;;;;;;;2.33;1.40;;;;;;;10.00;52.66;102562.56;5057476;28;20035;-66
2023/04/07 09:50:48;;;;;;;2.53;1.60;;;;;;;10.22;52.58;102556.75;5058352;28;20111;-66
2023/04/07 09:53:14;;;;;;;4.40;1.55;;;;;;;10.27;52.90;102545.56;5056300;28;20058;-66
2023/04/07 09:55:40;;;;;;;12.10;9.15;;;;;;;10.72;51.97;102553.50;5076468;28;20025;-66
2023/04/07 09:58:07;;;;;;;5.32;2.58;;;;;;;10.71;51.55;102542.88;5075806;28;20517;-66
2023/04/07 10:00:34;;;;;;;3.25;1.58;;;;;;;10.57;52.64;102549.69;5059273;28;20048;-66
2023/04/07 10:03:00;;;;;;;3.17;1.48;;;;;;;10.53;51.71;102557.25;5079042;28;20340;-67
2023/04/07 10:05:26;;;;;;;5.28;2.70;;;;;;;10.94;51.94;102541.38;5059062;28;20024;-66
2023/04/07 10:07:53;;;;;;;3.78;2.10;;;;;;;10.92;51.18;102543.34;5078503;28;20074;-66
2023/04/07 10:10:18;;;;;;;3.45;1.35;;;;;;;10.90;52.27;102539.16;5079687;28;20084;-66
2023/04/07 10:12:44;;;;;;;2.90;1.38;;;;;;;10.72;51.11;102523.03;5069297;28;20067;-67
2023/04/07 10:15:16;;;;;;;1.75;1.25;;;;;;;10.37;49.30;102538.25;5051408;28;20077;-67
2023/04/07 10:17:48;;;;;;;3.65;1.88;;;;;;;11.22;48.78;102538.47;5056398;28;20111;-67
2023/04/07 10:20:16;;;;;;;2.75;0.80;;;;;;;11.11;48.63;102542.31;5075362;28;20025;-67
2023/04/07 10:22:44;;;;;;;1.63;1.10;;;;;;;11.17;47.53;102535.44;5038643;28;20036;-67
2023/04/07 10:25:12;;;;;;;3.58;1.20;;;;;;;11.02;47.19;102494.75;5041352;28;20033;-67
2023/04/07 10:27:55;;;;;;;2.83;1.42;;;;;;;11.43;46.59;102535.38;5053300;28;20052;-66
2023/04/07 10:30:26;;;;;;;2.17;1.10;;;;;;;11.19;46.98;102531.59;5078541;28;20056;-67
2023/04/07 10:32:53;;;;;;;3.38;1.25;;;;;;;11.27;46.58;102537.00;5078160;28;20017;-67
2023/04/07 10:35:20;;;;;;;2.75;1.20;;;;;;;11.12;45.92;102548.53;5061020;28;20106;-67
2023/04/07 10:38:09;;;;;;;3.95;1.30;;;;;;;11.51;45.13;102530.00;5060635;28;20052;-66
2023/04/07 10:40:36;;;;;;;4.50;1.00;;;;;;;11.24;46.19;102526.53;5078458;28;20029;-66
2023/04/07 10:43:02;;;;;;;2.22;1.00;;;;;;;11.24;45.87;102537.31;5077378;28;20055;-66
2023/04/07 10:45:53;;;;;;;1.98;1.08;;;;;;;11.36;43.72;102540.59;5043015;28;20044;-67
2023/04/07 10:48:19;;;;;;;2.88;1.02;;;;;;;11.37;45.10;102536.03;5076231;28;20339;-68
2023/04/07 10:51:06;;;;;;;2.22;0.70;;;;;;;11.26;45.06;102499.44;5058982;28;20036;-68
2023/04/07 10:53:32;;;;;;;2.65;0.80;;;;;;;11.47;44.89;102532.19;5058401;28;20025;-68
2023/04/07 10:55:58;;;;;;;3.20;1.10;;;;;;;11.63;44.12;102536.81;5076435;28;20051;-68
2023/04/07 10:58:23;;;;;;;1.00;0.80;;;;;;;11.61;44.30;102532.56;5069918;28;20032;-68
2023/04/07 11:01:08;;;;;;;2.88;1.10;;;;;;;11.71;44.43;102528.72;5047031;28;20020;-67
2023/04/07 11:03:38;;;;;;;1.05;0.90;;;;;;;11.90;45.73;102530.31;5049469;28;20029;-67
2023/04/07 11:06:08;;;;;;;1.85;0.75;;;;;;;12.07;45.54;102544.69;5043139;28;20039;-69
2023/04/07 11:08:35;;;;;;;1.67;0.80;;;;;;;12.06;43.67;102531.38;5019554;28;20129;-68
2023/04/07 11:11:02;;;;;;;11.95;7.63;;;;;;;12.06;44.36;102529.53;5037224;28;20048;-68
2023/04/07 11:13:27;;;;;;;2.38;0.70;;;;;;;12.18;44.90;102521.94;5018968;28;20017;-68
2023/04/07 11:15:53;;;;;;;3.55;2.05;;;;;;;12.23;44.50;102523.13;5028290;28;20408;-68
2023/04/07 11:18:22;;;;;;;1.40;0.90;;;;;;;11.77;42.18;102519.97;5040567;28;20115;-68
2023/04/07 11:20:57;;;;;;;0.70;0.52;;;;;;;11.94;41.02;102506.56;5084295;28;20088;-67
2023/04/07 11:23:24;;;;;;;1.40;0.70;;;;;;;12.11;41.74;102529.00;5087999;28;20035;-69
2023/04/07 11:25:51;;;;;;;1.23;0.75;;;;;;;12.29;41.89;102520.78;5084294;28;20059;-66
2023/04/07 11:28:18;;;;;;;2.03;0.68;;;;;;;12.28;41.27;102519.06;5085835;28;20028;-65
2023/04/07 11:30:50;;;;;;;1.95;0.60;;;;;;;11.96;41.27;102520.75;5060801;28;20048;-66